Time;durP1;ratioP1;P1;durP2;ratioP2;P2;SDS_P1;SDS_P2;PMS_P1;PMS_P2;Temp;Humidity;BMP_temperature;BMP_pressure;BME280_temperature;BME280_humidity;BME280_pressure;Samples;Min_cycle;Max_cycle;Signal;HPM_P1;HPM_P2
2021/03/19 00:00:13;;;;;;;2.40;1.90;;;0.60;99.90;;;;;;4208952;28;20326;-60
2021/03/19 00:02:15;;;;;;;3.07;2.10;;;0.50;99.90;;;;;;4208808;28;20261;-61
2021/03/19 00:04:16;;;;;;;2.57;1.87;;;0.50;99.90;;;;;;4209051;28;20284;-61
2021/03/19 00:06:17;;;;;;;4.73;2.50;;;0.50;99.90;;;;;;4208514;28;20277;-60
2021/03/19 00:08:18;;;;;;;5.77;3.13;;;0.50;99.90;;;;;;4209393;28;20319;-61
2021/03/19 00:10:23;;;;;;;4.63;2.90;;;0.50;99.90;;;;;;4213346;28;20918;-61
2021/03/19 00:12:25;;;;;;;6.63;3.23;;;0.40;99.90;;;;;;4227089;28;20273;-61
2021/03/19 00:14:26;;;;;;;6.20;3.13;;;0.40;99.90;;;;;;4225226;28;20704;-61
2021/03/19 00:16:27;;;;;;;5.27;3.97;;;0.30;99.90;;;;;;4210489;28;20273;-62
2021/03/19 00:18:29;;;;;;;6.17;3.73;;;0.20;99.90;;;;;;4208166;28;20342;-63
2021/03/19 00:20:37;;;;;;;6.60;3.80;;;0.20;99.90;;;;;;4209268;28;20264;-62
2021/03/19 00:22:40;;;;;;;6.00;3.80;;;0.10;99.90;;;;;;4208784;28;20912;-63
2021/03/19 00:24:41;;;;;;;6.23;3.60;;;0.10;99.90;;;;;;4215195;27;20269;-60
2021/03/19 00:26:42;;;;;;;5.30;3.40;;;0.10;99.90;;;;;;4208278;28;20264;-62
2021/03/19 00:28:43;;;;;;;5.60;3.53;;;0.10;99.90;;;;;;4208993;28;20260;-62
2021/03/19 00:30:46;;;;;;;7.43;4.10;;;0.00;99.90;;;;;;4208579;28;20261;-65
2021/03/19 00:32:47;;;;;;;6.40;3.73;;;0.00;99.90;;;;;;4208746;28;20325;-66
2021/03/19 00:34:48;;;;;;;7.53;4.30;;;0.00;99.90;;;;;;4209007;28;20288;-60
2021/03/19 00:36:50;;;;;;;6.43;3.80;;;0.00;99.90;;;;;;4208317;28;20346;-59
2021/03/19 00:38:51;;;;;;;6.23;3.80;;;0.00;99.90;;;;;;4209302;28;20288;-65
2021/03/19 00:40:52;;;;;;;7.70;3.97;;;0.00;99.90;;;;;;4207767;28;20306;-63
2021/03/19 00:42:53;;;;;;;7.27;4.53;;;-0.10;99.90;;;;;;4209156;28;21192;-61
2021/03/19 00:44:54;;;;;;;8.33;4.33;;;-0.10;99.90;;;;;;4207889;28;20304;-59
2021/03/19 00:46:55;;;;;;;8.17;4.80;;;-0.10;99.90;;;;;;4209299;28;20261;-60
2021/03/19 00:48:56;;;;;;;8.40;5.43;;;-0.10;99.90;;;;;;4207725;28;20269;-61
2021/03/19 00:50:57;;;;;;;7.70;4.60;;;-0.10;99.90;;;;;;4209261;28;20318;-60
2021/03/19 00:52:59;;;;;;;7.83;5.07;;;-0.10;99.90;;;;;;4207516;28;20677;-62
2021/03/19 00:55:00;;;;;;;6.87;4.20;;;-0.10;99.90;;;;;;4209191;28;20280;-61
2021/03/19 00:57:01;;;;;;;8.27;4.80;;;-0.10;99.90;;;;;;4207317;28;20277;-60
2021/03/19 00:59:06;;;;;;;9.00;5.37;;;-0.10;99.90;;;;;;4209007;28;20570;-58
2021/03/19 01:01:07;;;;;;;9.80;5.50;;;-0.10;99.90;;;;;;4207614;28;20306;-60
2021/03/19 01:03:10;;;;;;;8.60;4.40;;;-0.10;99.90;;;;;;4208025;28;21160;-63
2021/03/19 01:05:34;;;;;;;7.00;4.43;;;-0.10;99.90;;;;;;4207468;28;20277;-63
2021/03/19 01:07:35;;;;;;;7.50;4.30;;;-0.20;99.90;;;;;;4208904;28;20326;-60
2021/03/19 01:09:36;;;;;;;6.20;3.93;;;-0.20;99.90;;;;;;4207903;28;20593;-60
2021/03/19 01:11:38;;;;;;;7.20;4.07;;;-0.20;99.90;;;;;;4207978;28;20342;-61
2021/03/19 01:13:39;;;;;;;7.80;4.90;;;-0.20;99.90;;;;;;4207995;28;20318;-63
2021/03/19 01:15:41;;;;;;;6.80;4.43;;;-0.20;99.90;;;;;;4207176;28;20414;-61
2021/03/19 01:17:42;;;;;;;8.27;4.33;;;-0.20;99.90;;;;;;4208211;28;20663;-63
2021/03/19 01:19:43;;;;;;;8.60;4.80;;;-0.20;99.90;;;;;;4207395;28;20265;-59
2021/03/19 01:21:44;;;;;;;11.47;6.20;;;-0.20;99.90;;;;;;4208549;28;20257;-61
2021/03/19 01:23:46;;;;;;;11.50;6.57;;;-0.20;99.90;;;;;;4207125;28;20326;-61
2021/03/19 01:25:47;;;;;;;10.20;6.30;;;-0.20;99.90;;;;;;4208838;28;20354;-64
2021/03/19 01:27:48;;;;;;;10.23;5.63;;;-0.20;99.90;;;;;;4207258;28;20319;-65
2021/03/19 01:29:49;;;;;;;13.43;5.67;;;-0.10;99.90;;;;;;4208528;28;20917;-65
2021/03/19 01:31:51;;;;;;;11.10;5.60;;;-0.10;99.90;;;;;;4206961;28;20265;-63
2021/03/19 01:33:52;;;;;;;11.23;6.13;;;-0.10;99.90;;;;;;4208173;28;20314;-64
2021/03/19 01:35:53;;;;;;;12.73;5.83;;;-0.10;99.90;;;;;;4207034;28;20927;-62
2021/03/19 01:37:54;;;;;;;10.67;6.27;;;-0.10;99.90;;;;;;4207849;28;20268;-63
2021/03/19 01:39:55;;;;;;;12.73;6.67;;;-0.10;99.90;;;;;;4207492;28;20233;-63
2021/03/19 01:42:01;;;;;;;13.37;7.23;;;-0.10;99.90;;;;;;4207695;28;20253;-61
2021/03/19 01:44:06;;;;;;;11.50;5.67;;;-0.10;99.90;;;;;;4207650;28;20268;-62
2021/03/19 01:46:44;;;;;;;10.17;5.93;;;-0.10;99.90;;;;;;4207499;28;20273;-62
2021/03/19 01:49:25;;;;;;;12.37;6.67;;;-0.10;99.90;;;;;;4207207;28;20908;-61
2021/03/19 01:52:03;;;;;;;12.32;6.45;;;-0.10;99.90;;;;;;4208243;28;20318;-65
2021/03/19 01:54:42;;;;;;;9.90;6.33;;;-0.20;99.90;;;;;;4206856;28;20020;-63
2021/03/19 01:57:21;;;;;;;12.23;6.27;;;-0.20;99.90;;;;;;4207639;28;20293;-56
2021/03/19 01:59:59;;;;;;;11.20;5.63;;;-0.10;99.90;;;;;;4207672;28;20268;-65
2021/03/19 02:02:38;;;;;;;11.43;6.10;;;-0.10;99.90;;;;;;4206822;28;20298;-61
2021/03/19 02:05:17;;;;;;;11.47;6.67;;;-0.20;99.90;;;;;;4207022;28;20280;-61
2021/03/19 02:07:55;;;;;;;13.20;6.70;;;-0.10;99.90;;;;;;4206748;28;20314;-64
2021/03/19 02:10:34;;;;;;;12.60;6.63;;;-0.10;99.90;;;;;;4206761;28;20269;-61
2021/03/19 02:13:12;;;;;;;10.23;5.97;;;-0.10;99.90;;;;;;4207832;28;20264;-61
2021/03/19 02:15:51;;;;;;;10.33;5.90;;;-0.10;99.90;;;;;;4206550;28;20292;-60
2021/03/19 02:18:29;;;;;;;11.23;5.80;;;-0.20;99.90;;;;;;4207356;28;20732;-60
2021/03/19 02:21:08;;;;;;;9.27;5.20;;;-0.30;99.90;;;;;;4206455;28;20268;-61
2021/03/19 02:23:46;;;;;;;7.73;4.77;;;-0.30;99.90;;;;;;4206805;28;20310;-61
2021/03/19 02:26:25;;;;;;;8.47;5.07;;;-0.40;99.90;;;;;;4206247;28;20269;-61
2021/03/19 02:29:04;;;;;;;7.93;4.67;;;-0.40;99.90;;;;;;4206265;28;20265;-60
2021/03/19 02:31:13;;;;;;;7.80;4.77;;;-0.40;99.90;;;;;;4207464;28;20269;-61
2021/03/19 02:33:15;;;;;;;7.07;4.27;;;-0.40;99.90;;;;;;4206102;28;20260;-61
2021/03/19 02:35:21;;;;;;;6.57;4.30;;;-0.40;99.90;;;;;;4207486;28;20306;-61
2021/03/19 02:37:26;;;;;;;7.80;4.40;;;-0.50;99.90;;;;;;4206445;28;20326;-61
2021/03/19 02:39:27;;;;;;;6.30;4.33;;;-0.50;99.90;;;;;;4207353;28;20265;-61
2021/03/19 02:41:28;;;;;;;7.57;4.10;;;-0.50;99.90;;;;;;4206344;28;20698;-62
2021/03/19 02:43:31;;;;;;;9.57;4.97;;;-0.50;99.90;;;;;;4207729;28;20330;-61
2021/03/19 02:45:32;;;;;;;8.43;4.70;;;-0.50;99.90;;;;;;4205631;28;20265;-61
2021/03/19 02:47:33;;;;;;;7.13;4.43;;;-0.50;99.90;;;;;;4207508;28;20610;-61
2021/03/19 02:49:36;;;;;;;8.47;5.13;;;-0.50;99.90;;;;;;4205876;28;20330;-61
2021/03/19 02:51:37;;;;;;;8.50;4.60;;;-0.50;99.90;;;;;;4207372;28;20280;-61
2021/03/19 02:53:38;;;;;;;10.17;5.13;;;-0.60;99.90;;;;;;4206528;28;20306;-62
2021/03/19 02:55:40;;;;;;;7.07;4.23;;;-0.50;99.90;;;;;;4207077;28;20284;-61
2021/03/19 02:57:41;;;;;;;8.40;5.00;;;-0.50;99.90;;;;;;4206327;28;20283;-63
2021/03/19 02:59:42;;;;;;;8.83;4.90;;;-0.50;99.90;;;;;;4206767;28;20261;-61
2021/03/19 03:01:44;;;;;;;7.90;4.70;;;-0.50;99.90;;;;;;4206737;28;20345;-60
2021/03/19 03:03:45;;;;;;;8.17;5.03;;;-0.50;99.90;;;;;;4205793;28;20273;-61
2021/03/19 03:05:46;;;;;;;7.93;4.37;;;-0.50;99.90;;;;;;4206657;28;20337;-60
2021/03/19 03:07:47;;;;;;;9.43;5.50;;;-0.50;99.90;;;;;;4206023;28;20323;-63
2021/03/19 03:09:49;;;;;;;9.53;5.53;;;-0.50;99.90;;;;;;4207362;28;20295;-61
2021/03/19 03:11:51;;;;;;;9.90;5.63;;;-0.50;99.90;;;;;;4205373;28;20314;-64
2021/03/19 03:13:52;;;;;;;12.00;5.83;;;-0.50;99.90;;;;;;4207232;28;20273;-62
2021/03/19 03:15:54;;;;;;;11.87;5.93;;;-0.50;99.90;;;;;;4207009;28;20297;-61
2021/03/19 03:17:55;;;;;;;11.37;6.03;;;-0.50;99.90;;;;;;4210665;28;20257;-61
2021/03/19 03:19:56;;;;;;;9.93;6.23;;;-0.50;99.90;;;;;;4208819;28;20276;-55
2021/03/19 03:21:58;;;;;;;12.57;6.53;;;-0.50;99.90;;;;;;4210457;28;20417;-60
2021/03/19 03:24:00;;;;;;;10.03;6.30;;;-0.40;99.90;;;;;;4208716;28;20273;-61
2021/03/19 03:26:03;;;;;;;9.87;6.20;;;-0.40;99.90;;;;;;4211185;28;20273;-62
2021/03/19 03:28:06;;;;;;;10.50;6.17;;;-0.40;99.90;;;;;;4209552;28;21180;-61
2021/03/19 03:30:14;;;;;;;8.67;5.73;;;-0.40;99.90;;;;;;4210233;28;20322;-61
2021/03/19 03:32:17;;;;;;;8.60;5.47;;;-0.50;99.90;;;;;;4209249;28;20261;-64
2021/03/19 03:34:18;;;;;;;8.87;5.23;;;-0.50;99.90;;;;;;4209701;28;20298;-65
2021/03/19 03:36:21;;;;;;;12.97;6.67;;;-0.50;99.90;;;;;;4209599;28;20691;-63
2021/03/19 03:38:25;;;;;;;8.87;5.47;;;-0.50;99.90;;;;;;4208914;28;20272;-62
2021/03/19 03:40:32;;;;;;;10.20;4.53;;;-0.50;99.90;;;;;;4209810;28;20249;-63
2021/03/19 03:42:33;;;;;;;8.63;5.17;;;-0.60;99.90;;;;;;4209209;28;20269;-62
2021/03/19 03:44:35;;;;;;;8.47;4.80;;;-0.60;99.90;;;;;;4209938;28;20268;-62
2021/03/19 03:46:36;;;;;;;9.27;5.13;;;-0.60;99.90;;;;;;4208423;28;20315;-62
2021/03/19 03:48:37;;;;;;;8.20;5.53;;;-0.60;99.90;;;;;;4209711;28;20310;-61
2021/03/19 03:50:39;;;;;;;9.33;5.40;;;-0.60;99.90;;;;;;4208710;28;20264;-61
2021/03/19 03:52:40;;;;;;;8.77;5.17;;;-0.60;99.90;;;;;;4210202;28;20648;-61
2021/03/19 03:54:41;;;;;;;11.47;5.87;;;-0.60;99.90;;;;;;4209222;28;20302;-62
2021/03/19 03:56:43;;;;;;;11.20;5.67;;;-0.60;99.90;;;;;;4210188;28;20845;-62
2021/03/19 03:58:44;;;;;;;11.83;6.07;;;-0.60;99.90;;;;;;4209022;28;20281;-60
2021/03/19 04:00:46;;;;;;;13.37;6.13;;;-0.60;99.90;;;;;;4210125;28;20336;-62
2021/03/19 04:02:48;;;;;;;11.67;6.07;;;-0.60;99.90;;;;;;4207234;28;20786;-63
2021/03/19 04:04:50;;;;;;;9.80;5.50;;;-0.60;99.90;;;;;;4209120;28;20280;-61
2021/03/19 04:06:51;;;;;;;11.60;5.63;;;-0.50;99.90;;;;;;4208976;28;20281;-61
2021/03/19 04:08:52;;;;;;;7.40;5.03;;;-0.50;99.90;;;;;;4209072;28;20322;-61
2021/03/19 04:10:56;;;;;;;9.23;5.27;;;-0.50;99.90;;;;;;4209294;28;20338;-61
2021/03/19 04:12:57;;;;;;;7.13;4.67;;;-0.60;99.90;;;;;;4208116;28;20315;-61
2021/03/19 04:14:58;;;;;;;10.03;5.53;;;-0.60;99.90;;;;;;4209731;28;20300;-61
2021/03/19 04:16:59;;;;;;;8.07;4.67;;;-0.60;99.90;;;;;;4207969;28;20284;-62
2021/03/19 04:19:00;;;;;;;8.37;5.03;;;-0.60;99.90;;;;;;4209426;28;21080;-60
2021/03/19 04:21:07;;;;;;;10.47;5.40;;;-0.60;99.90;;;;;;4208249;28;20273;-62
2021/03/19 04:23:09;;;;;;;14.73;5.47;;;-0.70;99.90;;;;;;4209732;28;20268;-61
2021/03/19 04:25:11;;;;;;;9.50;5.13;;;-0.60;99.90;;;;;;4208778;28;20893;-62
2021/03/19 04:27:20;;;;;;;12.43;5.77;;;-0.60;99.90;;;;;;4209129;28;20330;-61
2021/03/19 04:29:22;;;;;;;9.20;5.13;;;-0.70;99.90;;;;;;4208107;28;20440;-63
2021/03/19 04:31:24;;;;;;;13.63;6.70;;;-0.70;99.90;;;;;;4209580;28;20298;-61
2021/03/19 04:33:27;;;;;;;9.70;6.33;;;-0.70;99.90;;;;;;4207973;28;20330;-63
2021/03/19 04:35:30;;;;;;;9.47;5.33;;;-0.70;99.90;;;;;;4207884;28;21063;-61
2021/03/19 04:37:32;;;;;;;9.47;5.33;;;-0.70;99.90;;;;;;4207680;28;20276;-61
2021/03/19 04:39:34;;;;;;;11.97;5.37;;;-0.70;99.90;;;;;;4209109;28;20272;-60
2021/03/19 04:41:35;;;;;;;11.27;5.60;;;-0.70;99.90;;;;;;4208015;28;20264;-61
2021/03/19 04:43:36;;;;;;;8.93;5.37;;;-0.80;99.90;;;;;;4208667;28;20744;-60
2021/03/19 04:45:39;;;;;;;14.07;5.80;;;-0.80;99.90;;;;;;4208590;28;20678;-61
2021/03/19 04:47:41;;;;;;;8.93;5.67;;;-0.80;99.90;;;;;;4208692;28;20276;-61
2021/03/19 04:49:42;;;;;;;9.77;5.03;;;-0.80;99.90;;;;;;4208231;28;20333;-61
2021/03/19 04:51:43;;;;;;;9.93;5.40;;;-0.80;99.90;;;;;;4207845;28;20261;-61
2021/03/19 04:53:44;;;;;;;8.83;4.80;;;-0.80;99.90;;;;;;4208970;28;20744;-60
2021/03/19 04:55:45;;;;;;;7.37;4.53;;;-0.80;99.90;;;;;;4207785;28;20269;-58
2021/03/19 04:57:46;;;;;;;9.17;5.07;;;-0.80;99.90;;;;;;4207977;28;20354;-59
2021/03/19 04:59:48;;;;;;;8.10;4.50;;;-0.80;99.90;;;;;;4205633;28;20284;-59
2021/03/19 05:01:55;;;;;;;8.23;4.23;;;-0.70;99.90;;;;;;4208562;28;20334;-60
2021/03/19 05:03:56;;;;;;;7.43;4.13;;;-0.70;99.90;;;;;;4206691;28;20817;-60
2021/03/19 05:05:57;;;;;;;7.40;3.83;;;-0.70;99.90;;;;;;4208494;28;20651;-60
2021/03/19 05:08:00;;;;;;;5.20;3.33;;;-0.70;99.90;;;;;;4207482;28;20341;-60
2021/03/19 05:10:03;;;;;;;6.23;3.50;;;-0.70;99.90;;;;;;4207958;28;20272;-57
2021/03/19 05:12:06;;;;;;;6.77;3.50;;;-0.70;99.90;;;;;;4206392;28;20272;-63
2021/03/19 05:14:07;;;;;;;5.87;3.77;;;-0.70;99.90;;;;;;4208212;28;20281;-60
2021/03/19 05:16:09;;;;;;;4.70;2.97;;;-0.70;99.90;;;;;;4206822;28;20690;-61
2021/03/19 05:18:10;;;;;;;4.97;3.67;;;-0.70;99.90;;;;;;4207548;28;20314;-61
2021/03/19 05:20:13;;;;;;;4.87;3.00;;;-0.70;99.90;;;;;;4207437;28;20306;-60
2021/03/19 05:22:14;;;;;;;4.90;3.43;;;-0.80;99.90;;;;;;4207266;28;20260;-61
2021/03/19 05:24:15;;;;;;;11.23;4.67;;;-0.80;99.90;;;;;;4206084;28;20280;-60
2021/03/19 05:26:16;;;;;;;8.17;4.20;;;-0.70;99.90;;;;;;4207595;28;20322;-58
2021/03/19 05:28:19;;;;;;;8.07;3.93;;;-0.70;99.90;;;;;;4207991;28;20325;-60
2021/03/19 05:30:22;;;;;;;7.27;4.23;;;-0.80;99.90;;;;;;4206974;28;20381;-59
2021/03/19 05:32:25;;;;;;;7.70;4.07;;;-0.70;99.90;;;;;;4208097;28;20262;-58
2021/03/19 05:34:26;;;;;;;10.80;4.73;;;-0.80;99.90;;;;;;4205669;28;20329;-59
2021/03/19 05:36:31;;;;;;;10.13;5.33;;;-0.70;99.90;;;;;;4206055;28;21183;-60
2021/03/19 05:38:32;;;;;;;5.83;4.23;;;-0.70;99.90;;;;;;4205312;28;20326;-61
2021/03/19 05:40:43;;;;;;;9.60;5.60;;;-0.70;99.90;;;;;;4207556;28;20273;-61
2021/03/19 05:42:45;;;;;;;7.60;4.53;;;-0.70;99.90;;;;;;4206012;28;20810;-62
2021/03/19 05:44:49;;;;;;;8.77;5.30;;;-0.80;99.90;;;;;;4206009;28;20276;-61
2021/03/19 05:47:09;;;;;;;6.43;3.77;;;-0.80;99.90;;;;;;4205714;28;20876;-64
2021/03/19 05:49:10;;;;;;;5.87;3.40;;;-0.80;99.90;;;;;;4207009;28;20329;-63
2021/03/19 05:51:36;;;;;;;5.87;3.60;;;-0.80;99.90;;;;;;4205658;28;20626;-60
2021/03/19 05:53:43;;;;;;;8.87;3.97;;;-0.80;99.90;;;;;;4207752;28;20269;-62
2021/03/19 05:55:45;;;;;;;5.47;3.30;;;-0.80;99.90;;;;;;4206010;28;20681;-63
2021/03/19 05:57:46;;;;;;;8.50;4.20;;;-0.80;99.90;;;;;;4207435;28;20678;-59
2021/03/19 05:59:51;;;;;;;7.07;2.93;;;-0.80;99.90;;;;;;4206687;28;20281;-63
2021/03/19 06:01:52;;;;;;;7.67;4.20;;;-0.70;99.90;;;;;;4207025;28;21047;-57
2021/03/19 06:04:00;;;;;;;8.43;4.37;;;-0.70;99.90;;;;;;4203813;28;20280;-60
2021/03/19 06:06:10;;;;;;;8.67;4.50;;;-0.70;99.90;;;;;;4206780;28;20264;-61
2021/03/19 06:08:27;;;;;;;6.00;3.95;;;-0.70;99.90;;;;;;4204946;28;20269;-63
2021/03/19 06:10:32;;;;;;;10.37;4.97;;;-0.60;99.90;;;;;;4206919;28;20085;-62
2021/03/19 06:12:33;;;;;;;12.80;7.17;;;-0.60;99.90;;;;;;4206395;28;20277;-66
2021/03/19 06:14:48;;;;;;;11.80;6.33;;;-0.60;99.90;;;;;;4206146;28;20789;-62
2021/03/19 06:16:54;;;;;;;10.97;6.17;;;-0.50;99.90;;;;;;4205849;28;20281;-63
2021/03/19 06:18:57;;;;;;;7.93;5.07;;;-0.50;99.90;;;;;;4206832;28;20808;-61
2021/03/19 06:21:11;;;;;;;14.63;7.63;;;-0.40;99.90;;;;;;4206477;28;20249;-62
2021/03/19 06:23:18;;;;;;;7.80;4.30;;;-0.40;99.90;;;;;;4206759;28;20268;-59
2021/03/19 06:25:19;;;;;;;12.73;8.10;;;-0.30;99.90;;;;;;4205954;28;20732;-63
2021/03/19 06:27:45;;;;;;;9.80;5.77;;;-0.30;99.90;;;;;;4206814;28;20276;-59
2021/03/19 06:29:55;;;;;;;5.23;3.33;;;-0.30;99.90;;;;;;4205952;28;20252;-59
2021/03/19 06:32:25;;;;;;;5.20;3.97;;;-0.30;99.90;;;;;;4206774;28;21107;-60
2021/03/19 06:34:26;;;;;;;6.70;4.10;;;-0.30;99.90;;;;;;4205302;28;20317;-63
2021/03/19 06:36:28;;;;;;;6.90;3.70;;;-0.20;99.90;;;;;;4206108;28;20040;-61
2021/03/19 06:38:39;;;;;;;13.57;5.30;;;-0.20;99.90;;;;;;4202676;28;20276;-63
2021/03/19 06:40:41;;;;;;;9.23;5.03;;;-0.20;99.90;;;;;;4204416;28;20365;-58
2021/03/19 06:42:42;;;;;;;8.67;4.97;;;-0.20;99.90;;;;;;4203808;28;20326;-57
2021/03/19 06:45:00;;;;;;;8.37;4.43;;;-0.10;99.90;;;;;;4205617;28;20268;-61
2021/03/19 06:47:04;;;;;;;5.37;3.57;;;-0.10;99.90;;;;;;4203268;28;20264;-62
2021/03/19 06:49:08;;;;;;;6.50;4.43;;;-0.20;99.90;;;;;;4206463;28;20684;-59
2021/03/19 06:51:11;;;;;;;4.00;3.23;;;-0.20;99.90;;;;;;4205835;28;20310;-59
2021/03/19 06:53:32;;;;;;;6.30;4.37;;;-0.20;99.90;;;;;;4205463;28;20322;-59
2021/03/19 06:55:40;;;;;;;6.37;3.77;;;-0.10;99.90;;;;;;4206323;28;20326;-60
2021/03/19 06:57:47;;;;;;;6.20;4.83;;;-0.10;99.90;;;;;;4206948;28;21019;-57
2021/03/19 06:59:56;;;;;;;8.13;4.47;;;-0.10;99.90;;;;;;4205006;28;20269;-60
2021/03/19 07:01:59;;;;;;;6.07;3.93;;;-0.10;99.90;;;;;;4206592;28;20260;-56
2021/03/19 07:04:15;;;;;;;5.43;4.17;;;0.00;99.90;;;;;;4204601;28;20715;-59
2021/03/19 07:06:58;;;;;;;4.60;2.83;;;0.00;99.90;;;;;;4206782;28;20341;-60
2021/03/19 07:09:23;;;;;;;5.37;2.23;;;0.10;99.90;;;;;;4191773;28;20339;-61
2021/03/19 07:11:29;;;;;;;3.33;2.97;;;0.10;99.90;;;;;;4198975;28;20257;-59
2021/03/19 07:14:16;;;;;;;4.07;2.67;;;0.10;99.90;;;;;;4202928;28;20265;-62
2021/03/19 07:16:22;;;;;;;5.43;3.03;;;0.10;99.90;;;;;;4181214;28;20666;-60
2021/03/19 07:18:48;;;;;;;2.20;1.70;;;0.10;99.90;;;;;;4189913;28;20260;-59
2021/03/19 07:21:22;;;;;;;3.33;2.03;;;0.20;99.90;;;;;;4205185;28;21094;-61
2021/03/19 07:23:30;;;;;;;7.00;2.43;;;0.20;99.90;;;;;;4206060;28;20265;-63
2021/03/19 07:25:58;;;;;;;7.83;3.90;;;0.20;99.90;;;;;;4206373;28;20655;-60
2021/03/19 07:28:23;;;;;;;4.07;2.53;;;0.30;99.90;;;;;;4206189;28;20337;-60
2021/03/19 07:30:45;;;;;;;5.00;2.23;;;0.30;99.90;;;;;;4205553;28;20252;-59
2021/03/19 07:32:58;;;;;;;2.50;2.20;;;0.40;99.90;;;;;;4206685;28;20321;-59
2021/03/19 07:35:32;;;;;;;3.17;1.83;;;0.40;99.90;;;;;;4205617;28;20306;-61
2021/03/19 07:38:22;;;;;;;3.67;2.20;;;0.40;99.90;;;;;;4204444;28;20312;-62
2021/03/19 07:40:36;;;;;;;5.83;2.47;;;0.50;99.90;;;;;;4182913;28;21070;-65
2021/03/19 07:42:37;;;;;;;2.83;2.20;;;0.60;99.90;;;;;;4207083;28;20272;-59
2021/03/19 07:45:02;;;;;;;4.67;2.20;;;0.60;99.90;;;;;;4205733;28;20268;-62
2021/03/19 07:47:27;;;;;;;3.57;2.40;;;0.70;99.90;;;;;;4204471;28;20337;-62
2021/03/19 07:49:49;;;;;;;4.23;2.90;;;0.70;99.90;;;;;;4202403;28;20273;-60
2021/03/19 07:52:18;;;;;;;4.97;2.30;;;0.80;99.90;;;;;;4203282;28;20648;-61
2021/03/19 07:54:53;;;;;;;9.60;3.60;;;0.90;99.90;;;;;;4206166;28;20744;-63
2021/03/19 07:57:25;;;;;;;2.20;1.70;;;1.10;99.90;;;;;;4205978;28;20284;-59
2021/03/19 07:59:41;;;;;;;2.17;1.90;;;1.10;99.90;;;;;;4207403;28;20268;-61
2021/03/19 08:02:18;;;;;;;6.93;2.87;;;1.30;99.90;;;;;;4205914;28;20273;-62
2021/03/19 08:04:36;;;;;;;3.90;2.80;;;1.40;99.90;;;;;;4209560;28;20298;-63
2021/03/19 08:06:42;;;;;;;4.63;2.90;;;1.60;99.90;;;;;;4207801;28;21203;-62
2021/03/19 08:09:05;;;;;;;6.23;4.00;;;1.80;99.90;;;;;;4208450;28;20268;-62
2021/03/19 08:11:12;;;;;;;5.70;3.40;;;1.80;99.90;;;;;;4207504;28;20341;-56
2021/03/19 08:13:25;;;;;;;5.20;3.40;;;1.80;99.90;;;;;;4208117;28;20268;-61
2021/03/19 08:15:44;;;;;;;6.17;4.03;;;1.80;99.90;;;;;;4207055;28;20281;-61
2021/03/19 08:17:53;;;;;;;9.73;4.57;;;1.80;99.90;;;;;;4207088;28;20296;-61
2021/03/19 08:20:13;;;;;;;8.03;4.73;;;1.90;99.90;;;;;;4207230;28;20341;-60
2021/03/19 08:22:25;;;;;;;7.90;4.73;;;1.90;99.90;;;;;;4207495;28;20273;-58
2021/03/19 08:24:35;;;;;;;7.27;5.13;;;1.90;99.90;;;;;;4207091;28;20268;-62
2021/03/19 08:26:55;;;;;;;6.55;3.95;;;2.00;99.90;;;;;;4205614;28;20280;-62
2021/03/19 08:29:06;;;;;;;9.57;4.40;;;2.10;99.90;;;;;;4207229;28;20097;-62
2021/03/19 08:31:19;;;;;;;7.03;5.13;;;2.20;99.90;;;;;;4207149;28;20265;-63
2021/03/19 08:33:29;;;;;;;8.07;4.87;;;2.20;99.90;;;;;;4207184;28;20760;-60
2021/03/19 08:35:58;;;;;;;4.00;3.13;;;2.20;99.90;;;;;;4207673;28;20269;-60
2021/03/19 08:38:20;;;;;;;8.53;3.97;;;2.00;99.90;;;;;;4191355;28;20052;-60
2021/03/19 08:40:42;;;;;;;3.87;2.53;;;2.00;99.90;;;;;;4207081;28;20330;-61
2021/03/19 08:42:48;;;;;;;4.17;2.80;;;1.90;99.90;;;;;;4207332;28;20273;-59
2021/03/19 08:44:51;;;;;;;5.73;3.00;;;1.90;99.90;;;;;;4207004;28;20253;-59
2021/03/19 08:46:57;;;;;;;11.07;4.87;;;1.80;99.90;;;;;;4206623;28;21015;-61
2021/03/19 08:49:05;;;;;;;14.07;5.57;;;1.90;99.90;;;;;;4206932;28;20349;-60
2021/03/19 08:51:21;;;;;;;9.97;4.17;;;2.20;99.90;;;;;;4207465;28;20598;-60
2021/03/19 08:53:24;;;;;;;15.07;3.00;;;2.20;99.90;;;;;;4206991;28;20269;-60
2021/03/19 08:55:26;;;;;;;16.13;4.43;;;2.30;99.90;;;;;;4207086;28;20277;-59
2021/03/19 08:57:32;;;;;;;8.57;2.90;;;2.20;99.90;;;;;;4206800;28;20277;-61
2021/03/19 08:59:33;;;;;;;10.23;4.40;;;2.10;99.90;;;;;;4206882;28;20261;-61
2021/03/19 09:01:50;;;;;;;4.47;2.43;;;2.00;99.90;;;;;;4206502;28;20334;-60
2021/03/19 09:03:52;;;;;;;1.77;1.60;;;2.00;99.90;;;;;;4206640;28;20756;-59
2021/03/19 09:06:05;;;;;;;4.80;1.87;;;1.90;99.90;;;;;;4206573;28;20322;-58
2021/03/19 09:08:15;;;;;;;2.17;1.80;;;1.70;99.90;;;;;;4207044;28;20621;-59
2021/03/19 09:10:16;;;;;;;3.45;2.05;;;1.70;99.90;;;;;;4206775;28;20329;-59
2021/03/19 09:12:22;;;;;;;1.70;1.50;;;1.60;99.90;;;;;;4206770;28;20036;-62
2021/03/19 09:14:39;;;;;;;2.57;1.93;;;1.70;99.90;;;;;;4206604;28;20273;-59
2021/03/19 09:16:48;;;;;;;9.30;2.33;;;1.70;99.90;;;;;;4205986;28;20280;-60
2021/03/19 09:18:49;;;;;;;1.87;1.27;;;1.80;99.90;;;;;;4206632;28;20261;-58
2021/03/19 09:21:05;;;;;;;2.17;1.33;;;1.80;99.90;;;;;;4206349;28;20276;-62
2021/03/19 09:23:12;;;;;;;2.50;1.50;;;1.80;99.90;;;;;;4207088;28;20273;-59
2021/03/19 09:25:20;;;;;;;6.50;4.10;;;1.70;99.90;;;;;;4206505;28;20338;-61
2021/03/19 09:27:30;;;;;;;3.83;2.10;;;1.60;99.90;;;;;;4206046;28;20264;-59
2021/03/19 09:29:35;;;;;;;3.22;2.30;;;1.60;99.90;;;;;;4198689;28;20276;-60
2021/03/19 09:31:40;;;;;;;3.80;1.90;;;1.70;99.90;;;;;;4205591;28;20094;-59
2021/03/19 09:33:47;;;;;;;4.60;2.73;;;1.70;99.90;;;;;;4206231;28;20273;-63
2021/03/19 09:35:48;;;;;;;2.40;1.83;;;1.90;99.90;;;;;;4206878;28;20273;-57
2021/03/19 09:38:39;;;;;;;4.13;1.80;;;1.90;99.90;;;;;;4205063;28;20292;-60
2021/03/19 09:40:56;;;;;;;3.60;2.55;;;1.90;99.90;;;;;;4202716;28;20261;-58
2021/03/19 09:42:58;;;;;;;4.03;2.07;;;2.00;99.90;;;;;;4198930;28;20040;-63
2021/03/19 09:44:59;;;;;;;2.67;2.20;;;2.00;99.90;;;;;;4206163;28;20655;-54
2021/03/19 09:47:01;;;;;;;2.00;1.43;;;2.10;99.90;;;;;;4205031;28;20281;-58
2021/03/19 09:49:22;;;;;;;2.20;1.60;;;2.10;99.90;;;;;;4204340;28;20273;-62
2021/03/19 09:51:43;;;;;;;3.47;2.85;;;2.30;99.90;;;;;;4206144;28;20260;-61
2021/03/19 09:53:44;;;;;;;;;;;2.40;99.90;;;;;;4206274;28;20066;-62
2021/03/19 09:55:52;;;;;;;;;;;2.50;99.90;;;;;;4205724;28;20309;-61
2021/03/19 09:57:53;;;;;;;5.33;3.13;;;2.60;99.90;;;;;;4205995;28;19916;-62
2021/03/19 09:59:57;;;;;;;3.70;2.73;;;2.70;99.90;;;;;;4206052;28;20329;-62
2021/03/19 10:01:58;;;;;;;7.50;3.50;;;2.70;99.90;;;;;;4205516;28;20326;-63
2021/03/19 10:04:04;;;;;;;6.30;3.40;;;2.80;99.90;;;;;;4206228;28;20326;-62
2021/03/19 10:06:15;;;;;;;5.17;3.50;;;3.00;99.90;;;;;;4205406;28;20264;-61
2021/03/19 10:08:26;;;;;;;3.33;2.20;;;3.10;99.90;;;;;;4204585;28;20252;-60
2021/03/19 10:10:27;;;;;;;4.00;2.55;;;3.20;99.90;;;;;;4205571;28;20733;-61
2021/03/19 10:12:34;;;;;;;6.00;2.00;;;3.30;99.90;;;;;;4205620;28;20092;-60
2021/03/19 10:14:39;;;;;;;5.10;2.80;;;3.20;99.90;;;;;;4205516;28;20303;-61
2021/03/19 10:16:40;;;;;;;5.50;2.70;;;3.10;99.90;;;;;;4202671;28;20349;-62
2021/03/19 10:18:45;;;;;;;7.57;5.03;;;2.90;99.90;;;;;;4206355;28;20695;-61
2021/03/19 10:20:56;;;;;;;4.33;2.70;;;2.70;99.90;;;;;;4205403;28;20276;-62
2021/03/19 10:23:12;;;;;;;5.80;3.13;;;2.60;99.90;;;;;;4205051;28;20817;-59
2021/03/19 10:25:19;;;;;;;6.37;3.07;;;2.60;99.90;;;;;;4203806;28;20284;-59
2021/03/19 10:27:20;;;;;;;7.13;4.60;;;2.80;99.90;;;;;;4204869;28;20751;-61
2021/03/19 10:29:34;;;;;;;6.20;4.33;;;2.70;99.90;;;;;;4204937;28;20272;-59
2021/03/19 10:31:53;;;;;;;10.00;5.37;;;2.70;99.90;;;;;;4204539;28;20383;-61
2021/03/19 10:34:06;;;;;;;12.07;4.83;;;2.80;99.90;;;;;;4205450;28;20264;-61
2021/03/19 10:36:09;;;;;;;11.20;3.90;;;2.90;99.90;;;;;;4205289;28;20272;-59
2021/03/19 10:38:13;;;;;;;9.67;4.33;;;3.00;99.90;;;;;;4204529;28;20614;-61
2021/03/19 10:40:36;;;;;;;6.63;4.57;;;3.00;99.90;;;;;;4205312;28;20261;-62
2021/03/19 10:42:37;;;;;;;5.97;4.50;;;3.00;99.90;;;;;;4204575;28;20288;-62
2021/03/19 10:45:13;;;;;;;5.87;4.10;;;3.10;99.90;;;;;;4204926;28;20268;-60
2021/03/19 10:47:23;;;;;;;3.63;2.90;;;3.10;99.90;;;;;;4204579;28;20280;-59
2021/03/19 10:49:44;;;;;;;11.20;4.43;;;3.00;99.90;;;;;;4205155;28;20410;-60
2021/03/19 10:51:55;;;;;;;5.00;3.20;;;3.10;99.90;;;;;;4204998;28;20047;-61
2021/03/19 10:54:03;;;;;;;6.90;4.73;;;3.20;99.90;;;;;;4203885;28;20301;-62
2021/03/19 10:56:05;;;;;;;3.40;2.07;;;3.30;99.90;;;;;;4204191;28;20357;-59
2021/03/19 10:58:24;;;;;;;3.70;2.77;;;3.50;99.90;;;;;;4204762;28;20771;-62
2021/03/19 11:00:40;;;;;;;4.80;3.03;;;3.50;99.90;;;;;;4204551;28;21116;-61
2021/03/19 11:03:04;;;;;;;3.33;2.57;;;3.40;99.90;;;;;;4205223;28;20282;-60
2021/03/19 11:05:11;;;;;;;3.40;2.40;;;3.30;99.90;;;;;;4203532;28;20268;-62
2021/03/19 11:07:18;;;;;;;11.33;5.90;;;3.20;99.90;;;;;;4205305;28;21179;-62
2021/03/19 11:09:23;;;;;;;7.13;3.10;;;3.20;99.90;;;;;;4205361;28;20336;-63
2021/03/19 11:11:31;;;;;;;5.57;2.67;;;3.20;99.90;;;;;;4205178;28;20260;-60
2021/03/19 11:13:35;;;;;;;9.03;4.70;;;3.20;99.90;;;;;;4205430;28;20284;-61